sensor_id;sensor_type;location;lat;lon;timestamp;pressure;altitude;pressure_sealevel;temperature;humidity
76730;BME280;65653;53.106;18.046;2023-03-23T00:00:21;100033.45;;;10.30;74.93
76730;BME280;65653;53.106;18.046;2023-03-23T00:03:07;100035.67;;;10.29;74.92
76730;BME280;65653;53.106;18.046;2023-03-23T00:05:34;100031.67;;;10.28;74.89
76730;BME280;65653;53.106;18.046;2023-03-23T00:08:03;100029.64;;;10.27;74.78
76730;BME280;65653;53.106;18.046;2023-03-23T00:10:30;100023.85;;;10.25;74.97
76730;BME280;65653;53.106;18.046;2023-03-23T00:12:59;100032.08;;;10.24;74.85
76730;BME280;65653;53.106;18.046;2023-03-23T00:15:28;100034.01;;;10.21;75.13
76730;BME280;65653;53.106;18.046;2023-03-23T00:17:59;100032.45;;;10.17;75.23
76730;BME280;65653;53.106;18.046;2023-03-23T00:20:28;100028.88;;;10.12;75.43
76730;BME280;65653;53.106;18.046;2023-03-23T00:23:07;100024.73;;;10.08;75.41
76730;BME280;65653;53.106;18.046;2023-03-23T00:25:34;100030.16;;;10.04;75.66
76730;BME280;65653;53.106;18.046;2023-03-23T00:28:00;100032.77;;;10.00;75.73
76730;BME280;65653;53.106;18.046;2023-03-23T00:30:27;100027.77;;;9.96;75.80
76730;BME280;65653;53.106;18.046;2023-03-23T00:32:53;100028.58;;;9.95;75.85
76730;BME280;65653;53.106;18.046;2023-03-23T00:35:20;100025.05;;;9.93;75.99
76730;BME280;65653;53.106;18.046;2023-03-23T00:37:46;100026.20;;;9.90;75.93
76730;BME280;65653;53.106;18.046;2023-03-23T00:40:13;100022.42;;;9.87;76.15
76730;BME280;65653;53.106;18.046;2023-03-23T00:42:39;100018.23;;;9.85;76.30
76730;BME280;65653;53.106;18.046;2023-03-23T00:45:07;100013.95;;;9.82;76.39
76730;BME280;65653;53.106;18.046;2023-03-23T00:47:37;100012.15;;;9.79;76.40
76730;BME280;65653;53.106;18.046;2023-03-23T00:50:16;100012.11;;;9.77;76.40
76730;BME280;65653;53.106;18.046;2023-03-23T00:52:44;100005.66;;;9.76;76.49
76730;BME280;65653;53.106;18.046;2023-03-23T00:55:33;100001.66;;;9.74;76.78
76730;BME280;65653;53.106;18.046;2023-03-23T00:58:00;99999.77;;;9.73;76.72
76730;BME280;65653;53.106;18.046;2023-03-23T01:00:27;100001.96;;;9.75;76.70
76730;BME280;65653;53.106;18.046;2023-03-23T01:03:22;100000.86;;;9.76;76.72
76730;BME280;65653;53.106;18.046;2023-03-23T01:09:32;99997.16;;;9.75;76.60
76730;BME280;65653;53.106;18.046;2023-03-23T01:11:59;99996.18;;;9.74;76.75
76730;BME280;65653;53.106;18.046;2023-03-23T01:14:26;99993.63;;;9.72;76.70
76730;BME280;65653;53.106;18.046;2023-03-23T01:16:52;99989.84;;;9.71;76.76
76730;BME280;65653;53.106;18.046;2023-03-23T01:19:19;99986.08;;;9.68;76.77
76730;BME280;65653;53.106;18.046;2023-03-23T01:21:49;99986.59;;;9.64;76.98
76730;BME280;65653;53.106;18.046;2023-03-23T01:24:24;99988.23;;;9.59;77.09
76730;BME280;65653;53.106;18.046;2023-03-23T01:26:51;99987.29;;;9.56;77.27
76730;BME280;65653;53.106;18.046;2023-03-23T01:29:18;99991.77;;;9.55;77.25
76730;BME280;65653;53.106;18.046;2023-03-23T01:31:44;99989.86;;;9.52;77.36
76730;BME280;65653;53.106;18.046;2023-03-23T01:34:11;99991.05;;;9.49;77.35
76730;BME280;65653;53.106;18.046;2023-03-23T01:36:37;99986.98;;;9.44;77.52
76730;BME280;65653;53.106;18.046;2023-03-23T01:39:05;99977.54;;;9.39;77.67
76730;BME280;65653;53.106;18.046;2023-03-23T01:41:32;99973.13;;;9.33;78.02
76730;BME280;65653;53.106;18.046;2023-03-23T01:44:06;99969.07;;;9.25;78.10
76730;BME280;65653;53.106;18.046;2023-03-23T01:46:35;99971.67;;;9.17;78.44
76730;BME280;65653;53.106;18.046;2023-03-23T01:49:15;99969.98;;;9.10;78.95
76730;BME280;65653;53.106;18.046;2023-03-23T01:51:59;99966.71;;;9.04;79.38
76730;BME280;65653;53.106;18.046;2023-03-23T01:54:28;99964.89;;;8.99;79.39
76730;BME280;65653;53.106;18.046;2023-03-23T01:57:02;99962.55;;;8.94;79.54
76730;BME280;65653;53.106;18.046;2023-03-23T01:59:31;99958.98;;;8.90;79.72
76730;BME280;65653;53.106;18.046;2023-03-23T02:01:59;99958.09;;;8.86;79.90
76730;BME280;65653;53.106;18.046;2023-03-23T02:04:28;99957.15;;;8.80;79.76
76730;BME280;65653;53.106;18.046;2023-03-23T02:06:57;99954.73;;;8.74;79.91
76730;BME280;65653;53.106;18.046;2023-03-23T02:09:25;99958.26;;;8.69;79.93
76730;BME280;65653;53.106;18.046;2023-03-23T02:11:53;99956.00;;;8.65;80.36
76730;BME280;65653;53.106;18.046;2023-03-23T02:14:21;99951.58;;;8.61;80.38
76730;BME280;65653;53.106;18.046;2023-03-23T02:25:18;99929.52;;;8.42;81.11
76730;BME280;65653;53.106;18.046;2023-03-23T02:36:30;99923.56;;;8.27;81.57
76730;BME280;65653;53.106;18.046;2023-03-23T02:39:09;99921.96;;;8.25;81.71
76730;BME280;65653;53.106;18.046;2023-03-23T02:41:43;99923.27;;;8.24;81.64
76730;BME280;65653;53.106;18.046;2023-03-23T02:44:13;99923.81;;;8.24;81.68
76730;BME280;65653;53.106;18.046;2023-03-23T02:46:41;99914.27;;;8.23;81.70
76730;BME280;65653;53.106;18.046;2023-03-23T02:49:11;99911.52;;;8.24;81.55
76730;BME280;65653;53.106;18.046;2023-03-23T02:51:41;99910.91;;;8.22;81.60
76730;BME280;65653;53.106;18.046;2023-03-23T02:54:11;99903.05;;;8.20;81.46
76730;BME280;65653;53.106;18.046;2023-03-23T02:56:41;99898.67;;;8.15;81.84
76730;BME280;65653;53.106;18.046;2023-03-23T02:59:09;99902.23;;;8.14;82.01
76730;BME280;65653;53.106;18.046;2023-03-23T03:04:06;99906.90;;;8.11;82.16
76730;BME280;65653;53.106;18.046;2023-03-23T03:11:56;99915.17;;;8.05;82.29
76730;BME280;65653;53.106;18.046;2023-03-23T03:14:38;99915.08;;;8.05;82.26
76730;BME280;65653;53.106;18.046;2023-03-23T03:17:26;99917.88;;;8.04;82.35
76730;BME280;65653;53.106;18.046;2023-03-23T03:19:59;99912.41;;;8.07;82.18
76730;BME280;65653;53.106;18.046;2023-03-23T03:22:33;99911.42;;;8.07;82.20
76730;BME280;65653;53.106;18.046;2023-03-23T03:25:04;99908.94;;;8.09;82.08
76730;BME280;65653;53.106;18.046;2023-03-23T03:27:32;99904.61;;;8.10;82.25
76730;BME280;65653;53.106;18.046;2023-03-23T03:30:04;99902.33;;;8.11;82.18
76730;BME280;65653;53.106;18.046;2023-03-23T03:32:44;99898.73;;;8.14;82.14
76730;BME280;65653;53.106;18.046;2023-03-23T03:35:12;99896.25;;;8.13;82.12
76730;BME280;65653;53.106;18.046;2023-03-23T03:37:41;99895.80;;;8.14;82.23
76730;BME280;65653;53.106;18.046;2023-03-23T03:40:14;99896.46;;;8.13;82.09
76730;BME280;65653;53.106;18.046;2023-03-23T03:42:44;99891.25;;;8.11;82.09
76730;BME280;65653;53.106;18.046;2023-03-23T03:45:14;99888.94;;;8.06;82.23
76730;BME280;65653;53.106;18.046;2023-03-23T03:47:41;99891.14;;;8.03;82.31
76730;BME280;65653;53.106;18.046;2023-03-23T03:50:08;99888.64;;;8.03;82.33
76730;BME280;65653;53.106;18.046;2023-03-23T03:52:36;99888.89;;;8.01;82.36
76730;BME280;65653;53.106;18.046;2023-03-23T03:55:05;99877.56;;;8.02;82.37
76730;BME280;65653;53.106;18.046;2023-03-23T03:57:34;99875.10;;;8.03;82.33
76730;BME280;65653;53.106;18.046;2023-03-23T04:00:05;99871.61;;;8.02;82.35
76730;BME280;65653;53.106;18.046;2023-03-23T04:02:45;99877.30;;;8.01;82.21
76730;BME280;65653;53.106;18.046;2023-03-23T04:05:17;99874.69;;;8.04;82.07
76730;BME280;65653;53.106;18.046;2023-03-23T04:07:48;99872.81;;;8.03;81.89
76730;BME280;65653;53.106;18.046;2023-03-23T04:14:16;99873.48;;;8.02;81.84
76730;BME280;65653;53.106;18.046;2023-03-23T04:17:12;99876.23;;;7.99;81.87
76730;BME280;65653;53.106;18.046;2023-03-23T04:19:48;99876.41;;;7.98;82.01
76730;BME280;65653;53.106;18.046;2023-03-23T04:22:14;99876.95;;;7.95;81.91
76730;BME280;65653;53.106;18.046;2023-03-23T04:24:43;99879.60;;;7.89;82.12
76730;BME280;65653;53.106;18.046;2023-03-23T04:27:10;99881.65;;;7.85;82.23
76730;BME280;65653;53.106;18.046;2023-03-23T04:29:39;99877.77;;;7.82;82.43
76730;BME280;65653;53.106;18.046;2023-03-23T04:32:07;99874.62;;;7.79;82.44
76730;BME280;65653;53.106;18.046;2023-03-23T04:34:34;99875.82;;;7.81;82.45
76730;BME280;65653;53.106;18.046;2023-03-23T04:37:01;99870.48;;;7.85;82.26
76730;BME280;65653;53.106;18.046;2023-03-23T04:39:28;99865.20;;;7.90;82.08
76730;BME280;65653;53.106;18.046;2023-03-23T04:41:55;99863.77;;;7.97;82.01
76730;BME280;65653;53.106;18.046;2023-03-23T04:44:22;99865.73;;;8.01;81.83
76730;BME280;65653;53.106;18.046;2023-03-23T04:46:48;99864.98;;;8.05;81.60
76730;BME280;65653;53.106;18.046;2023-03-23T04:49:16;99856.32;;;8.09;81.31
76730;BME280;65653;53.106;18.046;2023-03-23T04:51:47;99852.42;;;8.15;81.23
76730;BME280;65653;53.106;18.046;2023-03-23T04:54:15;99847.86;;;8.21;81.08
76730;BME280;65653;53.106;18.046;2023-03-23T04:56:41;99842.84;;;8.30;80.75
76730;BME280;65653;53.106;18.046;2023-03-23T04:59:08;99845.05;;;8.39;80.30
76730;BME280;65653;53.106;18.046;2023-03-23T05:01:35;99840.16;;;8.46;80.13
76730;BME280;65653;53.106;18.046;2023-03-23T05:04:04;99840.15;;;8.54;79.74
76730;BME280;65653;53.106;18.046;2023-03-23T05:06:31;99845.73;;;8.63;79.44
76730;BME280;65653;53.106;18.046;2023-03-23T05:08:58;99841.63;;;8.72;78.91
76730;BME280;65653;53.106;18.046;2023-03-23T05:11:24;99836.70;;;8.80;78.83
76730;BME280;65653;53.106;18.046;2023-03-23T05:13:51;99829.08;;;8.87;78.30
76730;BME280;65653;53.106;18.046;2023-03-23T05:16:18;99819.75;;;8.94;77.93
76730;BME280;65653;53.106;18.046;2023-03-23T05:18:44;99817.19;;;9.00;77.64
76730;BME280;65653;53.106;18.046;2023-03-23T05:21:13;99818.23;;;9.06;77.49
76730;BME280;65653;53.106;18.046;2023-03-23T05:23:41;99814.98;;;9.13;77.25
76730;BME280;65653;53.106;18.046;2023-03-23T05:26:08;99827.52;;;9.20;77.10
76730;BME280;65653;53.106;18.046;2023-03-23T05:28:35;99829.26;;;9.26;76.85
76730;BME280;65653;53.106;18.046;2023-03-23T05:31:02;99825.65;;;9.34;76.24
76730;BME280;65653;53.106;18.046;2023-03-23T05:33:29;99821.61;;;9.44;75.70
76730;BME280;65653;53.106;18.046;2023-03-23T05:35:55;99823.40;;;9.53;75.72
76730;BME280;65653;53.106;18.046;2023-03-23T05:38:22;99824.08;;;9.63;75.21
76730;BME280;65653;53.106;18.046;2023-03-23T05:40:48;99814.94;;;9.74;74.48
76730;BME280;65653;53.106;18.046;2023-03-23T05:43:15;99807.26;;;9.86;73.57
76730;BME280;65653;53.106;18.046;2023-03-23T05:45:42;99796.64;;;9.95;73.31
76730;BME280;65653;53.106;18.046;2023-03-23T05:48:08;99792.38;;;10.02;72.99
76730;BME280;65653;53.106;18.046;2023-03-23T05:50:35;99787.36;;;10.10;73.00
76730;BME280;65653;53.106;18.046;2023-03-23T05:53:02;99783.27;;;10.18;72.62
76730;BME280;65653;53.106;18.046;2023-03-23T05:55:30;99774.70;;;10.26;72.25
76730;BME280;65653;53.106;18.046;2023-03-23T05:57:58;99775.89;;;10.30;72.04
76730;BME280;65653;53.106;18.046;2023-03-23T06:00:25;99775.69;;;10.37;72.48
76730;BME280;65653;53.106;18.046;2023-03-23T06:02:56;99770.51;;;10.50;71.86
76730;BME280;65653;53.106;18.046;2023-03-23T06:05:23;99771.99;;;10.63;71.87
76730;BME280;65653;53.106;18.046;2023-03-23T06:07:52;99783.11;;;10.77;71.39
76730;BME280;65653;53.106;18.046;2023-03-23T06:10:20;99781.53;;;10.92;70.47
76730;BME280;65653;53.106;18.046;2023-03-23T06:12:49;99786.84;;;11.02;69.85
76730;BME280;65653;53.106;18.046;2023-03-23T06:15:17;99783.95;;;11.11;69.60
76730;BME280;65653;53.106;18.046;2023-03-23T06:17:46;99783.17;;;11.15;69.16
76730;BME280;65653;53.106;18.046;2023-03-23T06:20:13;99771.73;;;11.15;68.67
76730;BME280;65653;53.106;18.046;2023-03-23T06:22:41;99765.27;;;11.16;68.75
76730;BME280;65653;53.106;18.046;2023-03-23T06:25:09;99759.23;;;11.17;68.35
76730;BME280;65653;53.106;18.046;2023-03-23T06:27:38;99763.14;;;11.21;68.58
76730;BME280;65653;53.106;18.046;2023-03-23T06:30:05;99772.80;;;11.27;68.84
76730;BME280;65653;53.106;18.046;2023-03-23T06:32:38;99777.17;;;11.37;68.84
76730;BME280;65653;53.106;18.046;2023-03-23T06:35:05;99779.03;;;11.47;68.20
76730;BME280;65653;53.106;18.046;2023-03-23T06:37:36;99775.89;;;11.57;67.73
76730;BME280;65653;53.106;18.046;2023-03-23T06:40:03;99768.78;;;11.65;67.61
76730;BME280;65653;53.106;18.046;2023-03-23T06:42:33;99758.64;;;11.72;68.09
76730;BME280;65653;53.106;18.046;2023-03-23T06:45:01;99764.29;;;11.82;67.01
76730;BME280;65653;53.106;18.046;2023-03-23T06:47:28;99761.64;;;11.94;67.21
76730;BME280;65653;53.106;18.046;2023-03-23T06:50:02;99761.77;;;12.10;66.51
76730;BME280;65653;53.106;18.046;2023-03-23T06:52:28;99759.94;;;12.25;65.64
76730;BME280;65653;53.106;18.046;2023-03-23T06:54:55;99773.16;;;12.41;64.58
76730;BME280;65653;53.106;18.046;2023-03-23T06:57:22;99774.52;;;12.53;64.32
76730;BME280;65653;53.106;18.046;2023-03-23T06:59:48;99770.21;;;12.63;64.11
76730;BME280;65653;53.106;18.046;2023-03-23T07:02:15;99772.52;;;12.67;64.10
76730;BME280;65653;53.106;18.046;2023-03-23T07:04:41;99770.48;;;12.65;63.33
76730;BME280;65653;53.106;18.046;2023-03-23T07:07:09;99774.31;;;12.62;64.09
76730;BME280;65653;53.106;18.046;2023-03-23T07:09:37;99773.73;;;12.59;63.87
76730;BME280;65653;53.106;18.046;2023-03-23T07:12:05;99777.96;;;12.52;63.37
76730;BME280;65653;53.106;18.046;2023-03-23T07:14:32;99781.19;;;12.49;62.95
76730;BME280;65653;53.106;18.046;2023-03-23T07:16:58;99775.09;;;12.49;63.04
76730;BME280;65653;53.106;18.046;2023-03-23T07:19:25;99773.92;;;12.51;62.54
76730;BME280;65653;53.106;18.046;2023-03-23T07:21:52;99766.48;;;12.63;61.95
76730;BME280;65653;53.106;18.046;2023-03-23T07:24:18;99759.64;;;12.81;61.67
76730;BME280;65653;53.106;18.046;2023-03-23T07:26:45;99750.47;;;12.98;61.01
76730;BME280;65653;53.106;18.046;2023-03-23T07:29:12;99749.33;;;13.12;60.62
76730;BME280;65653;53.106;18.046;2023-03-23T07:31:40;99757.90;;;13.31;59.60
76730;BME280;65653;53.106;18.046;2023-03-23T07:34:07;99750.27;;;13.72;58.43
76730;BME280;65653;53.106;18.046;2023-03-23T07:36:34;99756.27;;;14.03;57.68
76730;BME280;65653;53.106;18.046;2023-03-23T07:39:04;99762.41;;;14.31;56.95
76730;BME280;65653;53.106;18.046;2023-03-23T07:41:34;99761.61;;;14.60;56.23
76730;BME280;65653;53.106;18.046;2023-03-23T07:44:00;99757.41;;;14.73;55.64
76730;BME280;65653;53.106;18.046;2023-03-23T07:46:27;99769.48;;;14.71;55.47
76730;BME280;65653;53.106;18.046;2023-03-23T07:48:53;99764.48;;;14.69;55.71
76730;BME280;65653;53.106;18.046;2023-03-23T07:51:20;99764.70;;;14.64;55.57
76730;BME280;65653;53.106;18.046;2023-03-23T07:53:48;99758.66;;;14.67;55.64
76730;BME280;65653;53.106;18.046;2023-03-23T07:56:15;99760.52;;;14.76;55.42
76730;BME280;65653;53.106;18.046;2023-03-23T07:58:45;99765.56;;;14.81;54.86
76730;BME280;65653;53.106;18.046;2023-03-23T08:01:12;99774.00;;;14.89;54.95
76730;BME280;65653;53.106;18.046;2023-03-23T08:03:38;99778.41;;;14.79;55.56
76730;BME280;65653;53.106;18.046;2023-03-23T08:06:05;99778.34;;;14.64;55.46
76730;BME280;65653;53.106;18.046;2023-03-23T08:08:32;99773.96;;;14.52;55.83
76730;BME280;65653;53.106;18.046;2023-03-23T08:10:59;99771.92;;;14.63;55.09
76730;BME280;65653;53.106;18.046;2023-03-23T08:13:26;99768.80;;;15.05;53.78
76730;BME280;65653;53.106;18.046;2023-03-23T08:15:52;99770.73;;;15.45;52.99
76730;BME280;65653;53.106;18.046;2023-03-23T08:18:19;99775.48;;;15.68;52.12
76730;BME280;65653;53.106;18.046;2023-03-23T08:20:46;99783.42;;;15.51;52.26
76730;BME280;65653;53.106;18.046;2023-03-23T08:23:12;99787.48;;;15.39;52.94
76730;BME280;65653;53.106;18.046;2023-03-23T08:25:39;99779.92;;;15.13;53.39
76730;BME280;65653;53.106;18.046;2023-03-23T08:28:06;99774.41;;;14.95;53.68
76730;BME280;65653;53.106;18.046;2023-03-23T08:30:32;99782.98;;;14.89;54.28
76730;BME280;65653;53.106;18.046;2023-03-23T08:33:00;99780.05;;;14.94;54.47
76730;BME280;65653;53.106;18.046;2023-03-23T08:35:27;99777.17;;;15.00;54.11
76730;BME280;65653;53.106;18.046;2023-03-23T08:37:54;99783.13;;;15.16;53.57
76730;BME280;65653;53.106;18.046;2023-03-23T08:40:22;99782.88;;;15.43;53.20
76730;BME280;65653;53.106;18.046;2023-03-23T08:42:51;99777.05;;;15.40;53.27
76730;BME280;65653;53.106;18.046;2023-03-23T08:45:20;99773.58;;;15.44;52.98
76730;BME280;65653;53.106;18.046;2023-03-23T08:47:47;99776.91;;;15.56;52.77
76730;BME280;65653;53.106;18.046;2023-03-23T08:50:21;99783.05;;;15.60;52.64
76730;BME280;65653;53.106;18.046;2023-03-23T08:52:49;99780.03;;;15.60;53.23
76730;BME280;65653;53.106;18.046;2023-03-23T08:55:16;99775.55;;;15.64;52.96
76730;BME280;65653;53.106;18.046;2023-03-23T08:57:44;99766.57;;;15.99;52.25
76730;BME280;65653;53.106;18.046;2023-03-23T09:00:14;99767.76;;;16.23;50.83
76730;BME280;65653;53.106;18.046;2023-03-23T09:02:48;99756.17;;;16.73;50.36
76730;BME280;65653;53.106;18.046;2023-03-23T09:05:24;99764.36;;;17.67;48.65
76730;BME280;65653;53.106;18.046;2023-03-23T09:07:52;99771.02;;;17.75;47.46
76730;BME280;65653;53.106;18.046;2023-03-23T09:10:19;99767.29;;;17.54;47.56
76730;BME280;65653;53.106;18.046;2023-03-23T09:12:47;99761.39;;;17.47;47.41
76730;BME280;65653;53.106;18.046;2023-03-23T09:15:16;99777.66;;;17.40;47.22
76730;BME280;65653;53.106;18.046;2023-03-23T09:17:47;99775.85;;;17.56;47.36
76730;BME280;65653;53.106;18.046;2023-03-23T09:20:17;99770.27;;;17.73;47.22
76730;BME280;65653;53.106;18.046;2023-03-23T09:22:49;99774.88;;;17.31;47.30
76730;BME280;65653;53.106;18.046;2023-03-23T09:25:17;99771.13;;;17.34;47.73
76730;BME280;65653;53.106;18.046;2023-03-23T09:27:53;99773.05;;;17.83;46.81
76730;BME280;65653;53.106;18.046;2023-03-23T09:30:27;99772.36;;;17.96;46.55
76730;BME280;65653;53.106;18.046;2023-03-23T09:32:55;99780.77;;;17.65;46.51
76730;BME280;65653;53.106;18.046;2023-03-23T09:35:23;99780.44;;;17.37;47.20
76730;BME280;65653;53.106;18.046;2023-03-23T09:37:51;99780.61;;;17.00;47.80
76730;BME280;65653;53.106;18.046;2023-03-23T09:40:29;99783.23;;;16.76;48.42
76730;BME280;65653;53.106;18.046;2023-03-23T09:49:40;99788.30;;;16.28;50.80
76730;BME280;65653;53.106;18.046;2023-03-23T09:52:12;99785.72;;;16.03;51.07
76730;BME280;65653;53.106;18.046;2023-03-23T09:54:42;99799.37;;;15.85;51.45
76730;BME280;65653;53.106;18.046;2023-03-23T09:57:22;99793.63;;;15.67;52.16
76730;BME280;65653;53.106;18.046;2023-03-23T09:59:58;99809.45;;;15.30;52.97
76730;BME280;65653;53.106;18.046;2023-03-23T10:02:36;99801.26;;;15.03;53.93
76730;BME280;65653;53.106;18.046;2023-03-23T10:05:31;99796.33;;;14.87;54.47
76730;BME280;65653;53.106;18.046;2023-03-23T10:08:05;99803.46;;;14.76;54.76
76730;BME280;65653;53.106;18.046;2023-03-23T10:16:13;99802.95;;;14.65;55.37
76730;BME280;65653;53.106;18.046;2023-03-23T10:18:59;99801.76;;;14.68;55.58
76730;BME280;65653;53.106;18.046;2023-03-23T10:21:34;99806.11;;;14.71;55.62
76730;BME280;65653;53.106;18.046;2023-03-23T10:24:14;99808.57;;;14.75;55.82
76730;BME280;65653;53.106;18.046;2023-03-23T10:27:10;99816.22;;;14.86;55.76
76730;BME280;65653;53.106;18.046;2023-03-23T10:29:45;99824.13;;;14.97;55.95
76730;BME280;65653;53.106;18.046;2023-03-23T10:32:16;99823.00;;;14.92;56.65
76730;BME280;65653;53.106;18.046;2023-03-23T10:34:54;99821.42;;;14.77;57.81
76730;BME280;65653;53.106;18.046;2023-03-23T10:37:29;99826.58;;;14.63;57.76
76730;BME280;65653;53.106;18.046;2023-03-23T10:40:00;99820.59;;;14.48;58.17
76730;BME280;65653;53.106;18.046;2023-03-23T10:42:35;99824.83;;;14.28;59.35
76730;BME280;65653;53.106;18.046;2023-03-23T10:45:16;99831.77;;;14.18;60.47
76730;BME280;65653;53.106;18.046;2023-03-23T10:50:42;99833.66;;;13.57;62.77
76730;BME280;65653;53.106;18.046;2023-03-23T11:04:22;99841.23;;;13.29;64.83
76730;BME280;65653;53.106;18.046;2023-03-23T11:10:20;99841.63;;;13.57;64.41
76730;BME280;65653;53.106;18.046;2023-03-23T11:12:48;99842.73;;;13.67;64.72
76730;BME280;65653;53.106;18.046;2023-03-23T11:15:25;99842.35;;;13.79;64.32
76730;BME280;65653;53.106;18.046;2023-03-23T11:18:01;99844.80;;;13.94;64.26
76730;BME280;65653;53.106;18.046;2023-03-23T11:20:29;99850.05;;;13.96;64.23
76730;BME280;65653;53.106;18.046;2023-03-23T11:22:59;99848.17;;;14.02;64.63
76730;BME280;65653;53.106;18.046;2023-03-23T11:25:26;99845.23;;;14.17;64.80
76730;BME280;65653;53.106;18.046;2023-03-23T11:27:53;99849.95;;;14.28;64.29
76730;BME280;65653;53.106;18.046;2023-03-23T11:30:23;99849.23;;;14.19;63.48
76730;BME280;65653;53.106;18.046;2023-03-23T11:32:51;99847.52;;;14.11;63.98
76730;BME280;65653;53.106;18.046;2023-03-23T11:35:26;99847.39;;;14.10;63.37
76730;BME280;65653;53.106;18.046;2023-03-23T11:37:57;99845.91;;;14.17;62.79
76730;BME280;65653;53.106;18.046;2023-03-23T11:40:27;99839.34;;;14.39;62.68
76730;BME280;65653;53.106;18.046;2023-03-23T11:45:35;99850.94;;;14.65;61.20
76730;BME280;65653;53.106;18.046;2023-03-23T11:51:14;99842.45;;;14.34;62.12
76730;BME280;65653;53.106;18.046;2023-03-23T11:54:00;99854.01;;;14.09;62.23
76730;BME280;65653;53.106;18.046;2023-03-23T11:56:34;99848.88;;;13.96;62.34
76730;BME280;65653;53.106;18.046;2023-03-23T11:59:08;99843.18;;;13.92;63.05
76730;BME280;65653;53.106;18.046;2023-03-23T12:01:53;99846.27;;;13.96;62.90
76730;BME280;65653;53.106;18.046;2023-03-23T12:04:32;99845.00;;;14.08;62.92
76730;BME280;65653;53.106;18.046;2023-03-23T12:10:15;99841.04;;;14.19;62.72
76730;BME280;65653;53.106;18.046;2023-03-23T12:13:13;99839.88;;;14.05;63.02
76730;BME280;65653;53.106;18.046;2023-03-23T12:19:01;99833.26;;;14.55;62.06
76730;BME280;65653;53.106;18.046;2023-03-23T12:24:33;99819.45;;;16.55;56.95
76730;BME280;65653;53.106;18.046;2023-03-23T12:27:23;99813.58;;;16.55;56.40
76730;BME280;65653;53.106;18.046;2023-03-23T12:41:22;99820.95;;;15.40;58.16
76730;BME280;65653;53.106;18.046;2023-03-23T12:44:10;99822.96;;;15.15;59.57
76730;BME280;65653;53.106;18.046;2023-03-23T12:49:23;99818.09;;;15.03;59.44
76730;BME280;65653;53.106;18.046;2023-03-23T12:52:12;99816.16;;;14.86;59.35
76730;BME280;65653;53.106;18.046;2023-03-23T12:57:45;99818.85;;;14.53;60.09
76730;BME280;65653;53.106;18.046;2023-03-23T13:00:24;99814.43;;;14.49;60.35
76730;BME280;65653;53.106;18.046;2023-03-23T13:03:01;99817.05;;;14.49;60.43
76730;BME280;65653;53.106;18.046;2023-03-23T13:05:38;99818.92;;;14.48;60.13
76730;BME280;65653;53.106;18.046;2023-03-23T13:08:19;99824.00;;;14.42;60.31
76730;BME280;65653;53.106;18.046;2023-03-23T13:10:50;99819.21;;;14.36;60.21
76730;BME280;65653;53.106;18.046;2023-03-23T13:13:39;99819.69;;;14.35;60.52
76730;BME280;65653;53.106;18.046;2023-03-23T13:21:49;99817.46;;;14.38;60.13
76730;BME280;65653;53.106;18.046;2023-03-23T13:24:24;99819.58;;;14.50;59.33
76730;BME280;65653;53.106;18.046;2023-03-23T13:26:53;99822.80;;;14.62;58.76
76730;BME280;65653;53.106;18.046;2023-03-23T13:29:24;99820.35;;;14.69;58.13
76730;BME280;65653;53.106;18.046;2023-03-23T13:32:11;99819.05;;;14.68;58.30
76730;BME280;65653;53.106;18.046;2023-03-23T13:34:39;99813.35;;;14.71;58.06
76730;BME280;65653;53.106;18.046;2023-03-23T13:37:19;99819.88;;;14.64;57.93
76730;BME280;65653;53.106;18.046;2023-03-23T13:42:53;99823.95;;;14.62;58.05
76730;BME280;65653;53.106;18.046;2023-03-23T13:45:55;99824.60;;;14.67;58.51
76730;BME280;65653;53.106;18.046;2023-03-23T13:48:24;99822.70;;;14.66;58.94
76730;BME280;65653;53.106;18.046;2023-03-23T13:50:55;99822.39;;;14.68;58.93
76730;BME280;65653;53.106;18.046;2023-03-23T13:53:28;99815.23;;;14.72;59.30
76730;BME280;65653;53.106;18.046;2023-03-23T13:58:44;99815.03;;;14.85;59.17
76730;BME280;65653;53.106;18.046;2023-03-23T14:01:15;99812.60;;;14.98;58.96
76730;BME280;65653;53.106;18.046;2023-03-23T14:03:48;99815.02;;;15.05;58.86
76730;BME280;65653;53.106;18.046;2023-03-23T14:06:22;99812.29;;;15.17;58.77
76730;BME280;65653;53.106;18.046;2023-03-23T14:08:53;99808.30;;;15.28;58.65
76730;BME280;65653;53.106;18.046;2023-03-23T14:11:24;99807.52;;;15.36;58.37
76730;BME280;65653;53.106;18.046;2023-03-23T14:14:06;99814.29;;;15.37;58.47
76730;BME280;65653;53.106;18.046;2023-03-23T14:16:36;99811.75;;;15.27;58.78
76730;BME280;65653;53.106;18.046;2023-03-23T14:19:13;99812.02;;;15.15;59.14
76730;BME280;65653;53.106;18.046;2023-03-23T14:21:48;99810.15;;;15.01;59.36
76730;BME280;65653;53.106;18.046;2023-03-23T14:24:17;99805.92;;;14.87;59.72
76730;BME280;65653;53.106;18.046;2023-03-23T14:26:45;99807.24;;;14.80;60.28
76730;BME280;65653;53.106;18.046;2023-03-23T14:29:13;99806.67;;;14.69;60.64
76730;BME280;65653;53.106;18.046;2023-03-23T14:31:40;99811.04;;;14.64;61.07
76730;BME280;65653;53.106;18.046;2023-03-23T14:34:13;99811.19;;;14.55;61.28
76730;BME280;65653;53.106;18.046;2023-03-23T14:36:42;99809.52;;;14.51;61.55
76730;BME280;65653;53.106;18.046;2023-03-23T14:39:25;99802.65;;;14.45;61.59
76730;BME280;65653;53.106;18.046;2023-03-23T14:41:55;99803.02;;;14.34;61.70
76730;BME280;65653;53.106;18.046;2023-03-23T14:44:26;99805.74;;;14.26;61.85
76730;BME280;65653;53.106;18.046;2023-03-23T14:46:55;99806.25;;;14.23;62.12
76730;BME280;65653;53.106;18.046;2023-03-23T14:49:30;99800.95;;;14.22;62.28
76730;BME280;65653;53.106;18.046;2023-03-23T14:52:03;99797.02;;;14.24;62.17
76730;BME280;65653;53.106;18.046;2023-03-23T14:54:34;99794.04;;;14.26;62.29
76730;BME280;65653;53.106;18.046;2023-03-23T14:57:13;99796.14;;;14.30;62.14